sensor_id;sensor_type;location;lat;lon;timestamp;pressure;altitude;pressure_sealevel;temperature;humidity
41078;BME280;26823;42.662;23.352;2022-08-18T00:01:16;94653.72;;;20.84;68.13
41078;BME280;26823;42.662;23.352;2022-08-18T00:03:43;94653.97;;;20.66;68.54
41078;BME280;26823;42.662;23.352;2022-08-18T00:06:08;94648.84;;;20.52;67.57
41078;BME280;26823;42.662;23.352;2022-08-18T00:08:34;94637.38;;;20.50;66.47
41078;BME280;26823;42.662;23.352;2022-08-18T00:10:59;94643.09;;;20.58;66.54
41078;BME280;26823;42.662;23.352;2022-08-18T00:13:25;94662.78;;;20.60;66.09
41078;BME280;26823;42.662;23.352;2022-08-18T00:15:50;94651.59;;;20.52;68.39
41078;BME280;26823;42.662;23.352;2022-08-18T00:18:16;94641.97;;;20.59;68.29
41078;BME280;26823;42.662;23.352;2022-08-18T00:20:42;94649.84;;;20.73;68.02
41078;BME280;26823;42.662;23.352;2022-08-18T00:23:07;94649.72;;;20.69;66.98
41078;BME280;26823;42.662;23.352;2022-08-18T00:25:33;94645.63;;;20.75;66.71
41078;BME280;26823;42.662;23.352;2022-08-18T00:27:59;94646.38;;;20.88;65.83
41078;BME280;26823;42.662;23.352;2022-08-18T00:30:24;94652.56;;;20.85;66.25
41078;BME280;26823;42.662;23.352;2022-08-18T00:32:54;94660.34;;;20.83;66.19
41078;BME280;26823;42.662;23.352;2022-08-18T00:37:53;94645.38;;;20.56;68.25
41078;BME280;26823;42.662;23.352;2022-08-18T00:40:24;94654.88;;;20.71;67.14
41078;BME280;26823;42.662;23.352;2022-08-18T00:42:55;94657.44;;;20.51;68.10
41078;BME280;26823;42.662;23.352;2022-08-18T00:45:25;94656.06;;;20.45;68.68
41078;BME280;26823;42.662;23.352;2022-08-18T00:47:52;94648.97;;;20.44;68.45
41078;BME280;26823;42.662;23.352;2022-08-18T00:50:39;94653.44;;;20.36;68.57
41078;BME280;26823;42.662;23.352;2022-08-18T00:55:35;94659.28;;;20.22;69.71
41078;BME280;26823;42.662;23.352;2022-08-18T00:58:10;94669.22;;;20.27;70.16
41078;BME280;26823;42.662;23.352;2022-08-18T01:00:40;94679.06;;;20.40;69.54
41078;BME280;26823;42.662;23.352;2022-08-18T01:03:11;94658.47;;;20.21;70.17
41078;BME280;26823;42.662;23.352;2022-08-18T01:05:51;94665.44;;;20.31;69.19
41078;BME280;26823;42.662;23.352;2022-08-18T01:08:19;94664.06;;;20.25;70.06
41078;BME280;26823;42.662;23.352;2022-08-18T01:10:45;94661.31;;;20.25;69.29
41078;BME280;26823;42.662;23.352;2022-08-18T01:13:11;94661.31;;;20.25;69.08
41078;BME280;26823;42.662;23.352;2022-08-18T01:15:36;94666.81;;;20.25;69.59
41078;BME280;26823;42.662;23.352;2022-08-18T01:18:06;94679.53;;;20.17;70.34
41078;BME280;26823;42.662;23.352;2022-08-18T01:23:54;94672.78;;;20.15;70.32
41078;BME280;26823;42.662;23.352;2022-08-18T01:26:23;94658.84;;;19.95;70.38
41078;BME280;26823;42.662;23.352;2022-08-18T01:28:50;94657.13;;;20.03;70.08
41078;BME280;26823;42.662;23.352;2022-08-18T01:31:40;94665.00;;;20.04;70.72
41078;BME280;26823;42.662;23.352;2022-08-18T01:34:07;94653.22;;;19.92;70.44
41078;BME280;26823;42.662;23.352;2022-08-18T01:36:34;94657.88;;;19.79;71.50
41078;BME280;26823;42.662;23.352;2022-08-18T01:39:04;94661.09;;;19.93;70.80
41078;BME280;26823;42.662;23.352;2022-08-18T01:41:29;94665.75;;;19.80;71.87
41078;BME280;26823;42.662;23.352;2022-08-18T01:43:56;94668.66;;;19.84;71.35
41078;BME280;26823;42.662;23.352;2022-08-18T01:46:22;94652.25;;;19.75;70.90
41078;BME280;26823;42.662;23.352;2022-08-18T01:48:48;94648.75;;;19.87;70.81
41078;BME280;26823;42.662;23.352;2022-08-18T01:51:15;94649.44;;;19.84;71.22
41078;BME280;26823;42.662;23.352;2022-08-18T01:53:40;94644.81;;;19.76;71.37
41078;BME280;26823;42.662;23.352;2022-08-18T01:56:06;94633.03;;;19.63;71.61
41078;BME280;26823;42.662;23.352;2022-08-18T01:58:34;94638.06;;;19.73;72.33
41078;BME280;26823;42.662;23.352;2022-08-18T02:01:00;94638.66;;;19.66;72.68
41078;BME280;26823;42.662;23.352;2022-08-18T02:03:38;94644.34;;;19.61;73.28
41078;BME280;26823;42.662;23.352;2022-08-18T02:06:08;94649.47;;;19.50;74.13
41078;BME280;26823;42.662;23.352;2022-08-18T02:08:35;94627.31;;;19.55;73.10
41078;BME280;26823;42.662;23.352;2022-08-18T02:11:00;94634.75;;;19.55;72.90
41078;BME280;26823;42.662;23.352;2022-08-18T02:13:27;94657.25;;;19.61;73.07
41078;BME280;26823;42.662;23.352;2022-08-18T02:15:53;94634.22;;;19.40;73.27
41078;BME280;26823;42.662;23.352;2022-08-18T02:18:26;94664.69;;;19.60;73.64
41078;BME280;26823;42.662;23.352;2022-08-18T02:20:56;94661.56;;;19.49;74.24
41078;BME280;26823;42.662;23.352;2022-08-18T02:23:23;94659.38;;;19.43;75.17
41078;BME280;26823;42.662;23.352;2022-08-18T02:25:48;94663.25;;;19.42;75.40
41078;BME280;26823;42.662;23.352;2022-08-18T02:28:14;94653.38;;;19.16;76.88
41078;BME280;26823;42.662;23.352;2022-08-18T02:30:40;94660.59;;;19.33;76.00
41078;BME280;26823;42.662;23.352;2022-08-18T02:33:07;94671.09;;;19.18;76.67
41078;BME280;26823;42.662;23.352;2022-08-18T02:35:33;94652.69;;;19.19;76.55
41078;BME280;26823;42.662;23.352;2022-08-18T02:38:00;94652.81;;;19.22;75.99
41078;BME280;26823;42.662;23.352;2022-08-18T02:40:26;94654.41;;;19.23;75.68
41078;BME280;26823;42.662;23.352;2022-08-18T02:42:52;94613.81;;;19.04;75.92
41078;BME280;26823;42.662;23.352;2022-08-18T02:45:18;94610.94;;;19.01;75.77
41078;BME280;26823;42.662;23.352;2022-08-18T02:47:44;94641.63;;;19.15;75.83
41078;BME280;26823;42.662;23.352;2022-08-18T02:50:11;94652.69;;;19.19;75.89
41078;BME280;26823;42.662;23.352;2022-08-18T02:52:37;94644.19;;;18.99;76.41
41078;BME280;26823;42.662;23.352;2022-08-18T02:55:03;94654.13;;;19.04;76.24
41078;BME280;26823;42.662;23.352;2022-08-18T02:57:29;94630.13;;;19.01;75.45
41078;BME280;26823;42.662;23.352;2022-08-18T02:59:55;94651.63;;;19.11;75.49
41078;BME280;26823;42.662;23.352;2022-08-18T03:02:21;94659.31;;;19.18;75.51
41078;BME280;26823;42.662;23.352;2022-08-18T03:04:48;94658.16;;;19.06;75.70
41078;BME280;26823;42.662;23.352;2022-08-18T03:07:15;94661.97;;;18.93;77.00
41078;BME280;26823;42.662;23.352;2022-08-18T03:09:42;94652.13;;;18.92;77.45
41078;BME280;26823;42.662;23.352;2022-08-18T03:12:08;94658.34;;;18.80;78.20
41078;BME280;26823;42.662;23.352;2022-08-18T03:14:35;94650.84;;;18.68;78.97
41078;BME280;26823;42.662;23.352;2022-08-18T03:17:04;94656.84;;;18.83;78.61
41078;BME280;26823;42.662;23.352;2022-08-18T03:19:30;94667.19;;;18.77;78.89
41078;BME280;26823;42.662;23.352;2022-08-18T03:21:57;94663.69;;;18.77;78.93
41078;BME280;26823;42.662;23.352;2022-08-18T03:24:27;94658.75;;;18.91;78.36
41078;BME280;26823;42.662;23.352;2022-08-18T03:26:54;94668.81;;;18.78;78.49
41078;BME280;26823;42.662;23.352;2022-08-18T03:29:21;94653.84;;;18.75;78.11
41078;BME280;26823;42.662;23.352;2022-08-18T03:31:47;94674.22;;;18.87;77.85
41078;BME280;26823;42.662;23.352;2022-08-18T03:34:13;94661.88;;;18.60;78.75
41078;BME280;26823;42.662;23.352;2022-08-18T03:36:39;94676.78;;;18.71;79.09
41078;BME280;26823;42.662;23.352;2022-08-18T03:39:09;94644.69;;;18.50;79.23
41078;BME280;26823;42.662;23.352;2022-08-18T03:41:37;94665.94;;;18.74;78.61
41078;BME280;26823;42.662;23.352;2022-08-18T03:44:03;94659.38;;;18.67;78.79
41078;BME280;26823;42.662;23.352;2022-08-18T03:46:29;94673.69;;;18.51;80.66
41078;BME280;26823;42.662;23.352;2022-08-18T03:48:56;94683.78;;;18.81;79.07
41078;BME280;26823;42.662;23.352;2022-08-18T03:51:25;94677.16;;;18.82;78.90
41078;BME280;26823;42.662;23.352;2022-08-18T03:53:52;94682.72;;;18.73;79.25
41078;BME280;26823;42.662;23.352;2022-08-18T03:56:22;94680.28;;;18.50;80.88
41078;BME280;26823;42.662;23.352;2022-08-18T03:58:51;94647.78;;;18.19;81.60
41078;BME280;26823;42.662;23.352;2022-08-18T04:01:21;94681.16;;;18.42;81.34
41078;BME280;26823;42.662;23.352;2022-08-18T04:03:50;94686.94;;;18.40;79.81
41078;BME280;26823;42.662;23.352;2022-08-18T04:06:20;94677.16;;;18.39;80.64
41078;BME280;26823;42.662;23.352;2022-08-18T04:08:47;94693.00;;;18.55;80.34
41078;BME280;26823;42.662;23.352;2022-08-18T04:11:12;94685.41;;;18.31;81.32
41078;BME280;26823;42.662;23.352;2022-08-18T04:13:39;94693.25;;;18.41;81.04
41078;BME280;26823;42.662;23.352;2022-08-18T04:16:04;94687.09;;;18.44;80.22
41078;BME280;26823;42.662;23.352;2022-08-18T04:18:30;94673.28;;;18.11;81.52
41078;BME280;26823;42.662;23.352;2022-08-18T04:20:55;94685.31;;;18.18;81.71
41078;BME280;26823;42.662;23.352;2022-08-18T04:23:23;94698.47;;;18.55;79.89
41078;BME280;26823;42.662;23.352;2022-08-18T04:25:58;94701.59;;;18.66;79.32
41078;BME280;26823;42.662;23.352;2022-08-18T04:28:25;94703.50;;;18.74;78.66
41078;BME280;26823;42.662;23.352;2022-08-18T04:30:51;94698.94;;;18.78;78.48
41078;BME280;26823;42.662;23.352;2022-08-18T04:33:17;94683.06;;;18.71;78.06
41078;BME280;26823;42.662;23.352;2022-08-18T04:35:43;94712.97;;;18.77;78.74
41078;BME280;26823;42.662;23.352;2022-08-18T04:38:10;94711.72;;;18.74;79.05
41078;BME280;26823;42.662;23.352;2022-08-18T04:40:36;94718.41;;;18.85;78.33
41078;BME280;26823;42.662;23.352;2022-08-18T04:43:01;94715.69;;;19.06;77.10
41078;BME280;26823;42.662;23.352;2022-08-18T04:45:27;94717.09;;;18.92;78.21
41078;BME280;26823;42.662;23.352;2022-08-18T04:47:53;94708.44;;;18.81;78.57
41078;BME280;26823;42.662;23.352;2022-08-18T04:50:19;94707.84;;;18.96;78.50
41078;BME280;26823;42.662;23.352;2022-08-18T04:52:44;94700.72;;;19.04;77.97
41078;BME280;26823;42.662;23.352;2022-08-18T04:55:28;94702.03;;;19.19;77.18
41078;BME280;26823;42.662;23.352;2022-08-18T04:57:55;94699.19;;;19.15;77.68
41078;BME280;26823;42.662;23.352;2022-08-18T05:00:22;94719.34;;;19.32;77.28
41078;BME280;26823;42.662;23.352;2022-08-18T05:02:47;94723.81;;;19.36;77.31
41078;BME280;26823;42.662;23.352;2022-08-18T05:05:13;94718.84;;;19.51;76.59
41078;BME280;26823;42.662;23.352;2022-08-18T05:07:44;94728.97;;;19.71;75.95
41078;BME280;26823;42.662;23.352;2022-08-18T05:10:10;94725.72;;;19.91;75.10
41078;BME280;26823;42.662;23.352;2022-08-18T05:12:37;94721.84;;;20.04;74.48
41078;BME280;26823;42.662;23.352;2022-08-18T05:15:02;94718.78;;;20.18;73.60
41078;BME280;26823;42.662;23.352;2022-08-18T05:17:28;94728.84;;;20.39;73.14
41078;BME280;26823;42.662;23.352;2022-08-18T05:19:53;94716.38;;;20.41;73.31
41078;BME280;26823;42.662;23.352;2022-08-18T05:22:19;94733.75;;;20.58;71.44
41078;BME280;26823;42.662;23.352;2022-08-18T05:24:45;94726.06;;;20.63;69.78
41078;BME280;26823;42.662;23.352;2022-08-18T05:27:12;94737.31;;;20.83;68.85
41078;BME280;26823;42.662;23.352;2022-08-18T05:29:37;94732.38;;;20.89;67.92
41078;BME280;26823;42.662;23.352;2022-08-18T05:32:04;94738.06;;;21.08;66.92
41078;BME280;26823;42.662;23.352;2022-08-18T05:34:33;94734.97;;;21.10;66.73
41078;BME280;26823;42.662;23.352;2022-08-18T05:39:42;94746.28;;;21.49;64.78
41078;BME280;26823;42.662;23.352;2022-08-18T05:42:14;94743.56;;;21.37;64.93
41078;BME280;26823;42.662;23.352;2022-08-18T05:44:47;94725.22;;;21.41;64.52
41078;BME280;26823;42.662;23.352;2022-08-18T05:49:39;94742.63;;;21.57;64.45
41078;BME280;26823;42.662;23.352;2022-08-18T05:54:51;94736.66;;;21.55;64.26
41078;BME280;26823;42.662;23.352;2022-08-18T05:57:44;94744.19;;;21.58;65.31
41078;BME280;26823;42.662;23.352;2022-08-18T06:00:14;94740.88;;;21.81;63.40
41078;BME280;26823;42.662;23.352;2022-08-18T06:05:19;94750.44;;;22.15;63.55
41078;BME280;26823;42.662;23.352;2022-08-18T06:08:02;94725.91;;;22.10;63.41
41078;BME280;26823;42.662;23.352;2022-08-18T06:10:32;94740.41;;;22.39;62.39
41078;BME280;26823;42.662;23.352;2022-08-18T06:13:00;94744.56;;;22.33;61.57
41078;BME280;26823;42.662;23.352;2022-08-18T06:18:25;94734.47;;;22.53;61.85
41078;BME280;26823;42.662;23.352;2022-08-18T06:24:25;94737.31;;;22.92;61.16
41078;BME280;26823;42.662;23.352;2022-08-18T06:32:27;94742.34;;;23.22;59.97
41078;BME280;26823;42.662;23.352;2022-08-18T06:40:34;94740.03;;;23.44;59.11
41078;BME280;26823;42.662;23.352;2022-08-18T06:43:01;94730.28;;;23.50;59.07
41078;BME280;26823;42.662;23.352;2022-08-18T06:45:46;94744.28;;;23.81;58.38
41078;BME280;26823;42.662;23.352;2022-08-18T06:51:13;94734.47;;;23.64;58.94
41078;BME280;26823;42.662;23.352;2022-08-18T07:04:56;94715.16;;;24.53;57.23
41078;BME280;26823;42.662;23.352;2022-08-18T07:09:56;94707.84;;;24.91;55.13
41078;BME280;26823;42.662;23.352;2022-08-18T07:12:24;94707.03;;;24.87;55.26
41078;BME280;26823;42.662;23.352;2022-08-18T07:14:57;94710.19;;;25.19;55.26
41078;BME280;26823;42.662;23.352;2022-08-18T07:17:25;94716.47;;;25.43;54.59
41078;BME280;26823;42.662;23.352;2022-08-18T07:19:56;94688.78;;;25.43;53.39
41078;BME280;26823;42.662;23.352;2022-08-18T07:22:22;94709.19;;;25.62;52.53
41078;BME280;26823;42.662;23.352;2022-08-18T07:24:49;94694.06;;;25.55;51.90
41078;BME280;26823;42.662;23.352;2022-08-18T07:27:42;94700.69;;;25.81;49.93
41078;BME280;26823;42.662;23.352;2022-08-18T07:30:09;94704.75;;;25.91;50.72
41078;BME280;26823;42.662;23.352;2022-08-18T07:32:45;94702.16;;;26.09;50.81
41078;BME280;26823;42.662;23.352;2022-08-18T07:35:16;94696.63;;;26.09;50.59
41078;BME280;26823;42.662;23.352;2022-08-18T07:42:59;94710.84;;;26.49;48.78
41078;BME280;26823;42.662;23.352;2022-08-18T07:45:36;94704.56;;;26.59;48.33
41078;BME280;26823;42.662;23.352;2022-08-18T07:48:18;94698.63;;;26.61;50.46
41078;BME280;26823;42.662;23.352;2022-08-18T07:50:54;94702.75;;;26.78;48.86
41078;BME280;26823;42.662;23.352;2022-08-18T07:53:59;94698.09;;;26.96;49.88
41078;BME280;26823;42.662;23.352;2022-08-18T07:56:38;94701.75;;;27.08;49.45
41078;BME280;26823;42.662;23.352;2022-08-18T07:59:34;94706.22;;;27.30;47.26
41078;BME280;26823;42.662;23.352;2022-08-18T08:07:54;94694.47;;;27.62;46.01
41078;BME280;26823;42.662;23.352;2022-08-18T08:10:29;94703.28;;;27.86;45.42
41078;BME280;26823;42.662;23.352;2022-08-18T08:15:44;94700.91;;;27.99;44.14
41078;BME280;26823;42.662;23.352;2022-08-18T08:21:13;94701.78;;;28.18;42.70
41078;BME280;26823;42.662;23.352;2022-08-18T08:26:22;94698.22;;;28.35;42.39
41078;BME280;26823;42.662;23.352;2022-08-18T08:29:34;94700.19;;;28.45;41.79
41078;BME280;26823;42.662;23.352;2022-08-18T08:32:04;94698.59;;;28.59;41.62
41078;BME280;26823;42.662;23.352;2022-08-18T08:37:09;94691.06;;;28.74;40.88
41078;BME280;26823;42.662;23.352;2022-08-18T08:39:44;94695.03;;;28.80;39.85
41078;BME280;26823;42.662;23.352;2022-08-18T08:42:19;94697.78;;;28.98;39.23
41078;BME280;26823;42.662;23.352;2022-08-18T08:44:55;94696.59;;;29.06;39.64
41078;BME280;26823;42.662;23.352;2022-08-18T08:50:06;94692.63;;;28.96;40.84
41078;BME280;26823;42.662;23.352;2022-08-18T08:55:21;94693.34;;;29.33;38.91
41078;BME280;26823;42.662;23.352;2022-08-18T09:00:34;94705.63;;;29.47;38.69
41078;BME280;26823;42.662;23.352;2022-08-18T09:11:56;94693.16;;;29.76;37.02
41078;BME280;26823;42.662;23.352;2022-08-18T09:17:58;94683.19;;;29.79;36.30
41078;BME280;26823;42.662;23.352;2022-08-18T09:25:47;94663.22;;;29.95;36.24
41078;BME280;26823;42.662;23.352;2022-08-18T09:33:13;94670.38;;;30.00;35.35
41078;BME280;26823;42.662;23.352;2022-08-18T09:38:36;94635.19;;;30.17;34.64
41078;BME280;26823;42.662;23.352;2022-08-18T09:41:32;94652.22;;;30.30;34.68
41078;BME280;26823;42.662;23.352;2022-08-18T09:51:46;94649.06;;;30.28;33.82
41078;BME280;26823;42.662;23.352;2022-08-18T09:54:14;94646.34;;;30.17;34.16
41078;BME280;26823;42.662;23.352;2022-08-18T10:02:08;94638.63;;;30.35;34.41
41078;BME280;26823;42.662;23.352;2022-08-18T10:09:53;94617.41;;;29.15;35.68
41078;BME280;26823;42.662;23.352;2022-08-18T10:15:16;94631.50;;;29.71;35.14
41078;BME280;26823;42.662;23.352;2022-08-18T10:21:01;94625.47;;;29.80;34.89
41078;BME280;26823;42.662;23.352;2022-08-18T10:28:58;94615.25;;;29.58;35.52
41078;BME280;26823;42.662;23.352;2022-08-18T10:31:25;94603.22;;;29.72;34.31
41078;BME280;26823;42.662;23.352;2022-08-18T10:36:45;94617.28;;;30.14;34.12
41078;BME280;26823;42.662;23.352;2022-08-18T10:39:18;94614.72;;;30.34;32.68
41078;BME280;26823;42.662;23.352;2022-08-18T10:41:57;94614.09;;;30.61;32.35
41078;BME280;26823;42.662;23.352;2022-08-18T10:44:29;94600.72;;;30.41;32.51
41078;BME280;26823;42.662;23.352;2022-08-18T10:46:57;94610.84;;;30.70;31.93
41078;BME280;26823;42.662;23.352;2022-08-18T10:49:26;94602.53;;;30.97;31.18
41078;BME280;26823;42.662;23.352;2022-08-18T10:57:29;94596.66;;;31.26;30.90
41078;BME280;26823;42.662;23.352;2022-08-18T11:00:02;94594.94;;;31.01;31.57
41078;BME280;26823;42.662;23.352;2022-08-18T11:03:02;94593.75;;;31.02;32.18
41078;BME280;26823;42.662;23.352;2022-08-18T11:05:34;94577.75;;;31.03;31.42
41078;BME280;26823;42.662;23.352;2022-08-18T11:08:03;94585.34;;;31.37;31.23
41078;BME280;26823;42.662;23.352;2022-08-18T11:10:39;94590.72;;;31.24;30.70
41078;BME280;26823;42.662;23.352;2022-08-18T11:13:18;94580.88;;;31.12;30.62
41078;BME280;26823;42.662;23.352;2022-08-18T11:16:38;94578.31;;;30.90;29.17
41078;BME280;26823;42.662;23.352;2022-08-18T11:18:48;94583.38;;;30.99;30.29
41078;BME280;26823;42.662;23.352;2022-08-18T11:26:48;94565.44;;;31.62;28.07
41078;BME280;26823;42.662;23.352;2022-08-18T11:34:41;94569.25;;;30.37;31.21
41078;BME280;26823;42.662;23.352;2022-08-18T11:37:18;94573.13;;;30.54;31.26
41078;BME280;26823;42.662;23.352;2022-08-18T11:39:49;94570.81;;;30.84;31.00
41078;BME280;26823;42.662;23.352;2022-08-18T11:42:19;94568.34;;;30.89;31.14
41078;BME280;26823;42.662;23.352;2022-08-18T11:44:54;94570.00;;;30.83;30.67
41078;BME280;26823;42.662;23.352;2022-08-18T11:47:25;94571.34;;;30.71;30.92
41078;BME280;26823;42.662;23.352;2022-08-18T11:50:12;94556.72;;;30.60;30.76
41078;BME280;26823;42.662;23.352;2022-08-18T11:52:49;94569.19;;;30.48;31.01
41078;BME280;26823;42.662;23.352;2022-08-18T11:55:28;94550.66;;;30.23;31.77
41078;BME280;26823;42.662;23.352;2022-08-18T11:57:55;94549.63;;;30.52;31.37
41078;BME280;26823;42.662;23.352;2022-08-18T12:03:18;94549.22;;;30.88;30.89
41078;BME280;26823;42.662;23.352;2022-08-18T12:05:49;94546.09;;;31.17;31.04
41078;BME280;26823;42.662;23.352;2022-08-18T12:08:37;94538.91;;;31.19;29.57
41078;BME280;26823;42.662;23.352;2022-08-18T12:11:18;94498.31;;;30.77;29.50
41078;BME280;26823;42.662;23.352;2022-08-18T12:13:46;94541.41;;;31.10;29.97
41078;BME280;26823;42.662;23.352;2022-08-18T12:16:37;94534.19;;;31.13;30.19
41078;BME280;26823;42.662;23.352;2022-08-18T12:19:01;94535.72;;;31.48;29.21
41078;BME280;26823;42.662;23.352;2022-08-18T12:21:27;94525.56;;;31.31;29.87
41078;BME280;26823;42.662;23.352;2022-08-18T12:23:53;94523.84;;;31.41;29.21
41078;BME280;26823;42.662;23.352;2022-08-18T12:26:18;94528.09;;;31.49;28.95
41078;BME280;26823;42.662;23.352;2022-08-18T12:28:44;94518.81;;;31.28;29.50
41078;BME280;26823;42.662;23.352;2022-08-18T12:31:10;94514.50;;;31.23;29.21
41078;BME280;26823;42.662;23.352;2022-08-18T12:33:35;94513.16;;;31.63;29.40
41078;BME280;26823;42.662;23.352;2022-08-18T12:36:02;94524.03;;;31.81;28.77
41078;BME280;26823;42.662;23.352;2022-08-18T12:38:28;94526.31;;;31.90;28.84
41078;BME280;26823;42.662;23.352;2022-08-18T12:40:53;94520.44;;;32.08;28.38
41078;BME280;26823;42.662;23.352;2022-08-18T12:43:19;94521.34;;;32.25;28.09
41078;BME280;26823;42.662;23.352;2022-08-18T12:45:45;94525.69;;;32.29;27.91
41078;BME280;26823;42.662;23.352;2022-08-18T12:48:11;94522.22;;;32.22;26.89
41078;BME280;26823;42.662;23.352;2022-08-18T12:50:37;94532.41;;;32.08;28.33
41078;BME280;26823;42.662;23.352;2022-08-18T12:53:03;94533.59;;;31.83;28.24
41078;BME280;26823;42.662;23.352;2022-08-18T12:55:36;94530.50;;;31.78;28.59
41078;BME280;26823;42.662;23.352;2022-08-18T12:58:02;94533.41;;;31.70;29.20
41078;BME280;26823;42.662;23.352;2022-08-18T13:00:29;94516.09;;;31.52;29.29
41078;BME280;26823;42.662;23.352;2022-08-18T13:02:55;94521.81;;;31.72;28.91
41078;BME280;26823;42.662;23.352;2022-08-18T13:05:20;94524.34;;;31.59;28.87
41078;BME280;26823;42.662;23.352;2022-08-18T13:07:46;94507.78;;;31.48;29.11
41078;BME280;26823;42.662;23.352;2022-08-18T13:10:11;94508.28;;;31.39;29.02
41078;BME280;26823;42.662;23.352;2022-08-18T13:12:37;94509.13;;;31.36;29.32
41078;BME280;26823;42.662;23.352;2022-08-18T13:15:03;94505.31;;;30.92;30.05
41078;BME280;26823;42.662;23.352;2022-08-18T13:17:30;94493.59;;;31.04;29.35
41078;BME280;26823;42.662;23.352;2022-08-18T13:19:56;94506.66;;;31.42;29.76
41078;BME280;26823;42.662;23.352;2022-08-18T13:22:22;94502.22;;;31.17;30.32
41078;BME280;26823;42.662;23.352;2022-08-18T13:24:47;94495.31;;;31.26;29.34
41078;BME280;26823;42.662;23.352;2022-08-18T13:27:13;94493.41;;;31.46;29.64
41078;BME280;26823;42.662;23.352;2022-08-18T13:29:38;94495.69;;;31.55;29.27
41078;BME280;26823;42.662;23.352;2022-08-18T13:32:04;94465.34;;;31.30;29.17
41078;BME280;26823;42.662;23.352;2022-08-18T13:34:33;94484.13;;;31.53;28.74
41078;BME280;26823;42.662;23.352;2022-08-18T13:36:59;94488.38;;;31.65;28.79
41078;BME280;26823;42.662;23.352;2022-08-18T13:39:25;94493.06;;;31.71;28.83
41078;BME280;26823;42.662;23.352;2022-08-18T13:41:52;94491.97;;;31.62;29.28
41078;BME280;26823;42.662;23.352;2022-08-18T13:44:19;94485.47;;;31.72;29.18
41078;BME280;26823;42.662;23.352;2022-08-18T13:46:46;94485.72;;;31.81;29.14
41078;BME280;26823;42.662;23.352;2022-08-18T13:49:15;94493.06;;;31.71;28.78
41078;BME280;26823;42.662;23.352;2022-08-18T13:51:42;94489.84;;;31.73;28.45
41078;BME280;26823;42.662;23.352;2022-08-18T13:54:20;94485.53;;;31.92;29.69
41078;BME280;26823;42.662;23.352;2022-08-18T13:56:46;94481.78;;;31.79;29.21
41078;BME280;26823;42.662;23.352;2022-08-18T13:59:12;94485.22;;;31.63;29.03
41078;BME280;26823;42.662;23.352;2022-08-18T14:01:38;94480.28;;;31.70;29.53
41078;BME280;26823;42.662;23.352;2022-08-18T14:04:06;94478.16;;;31.78;28.35
41078;BME280;26823;42.662;23.352;2022-08-18T14:06:32;94478.50;;;31.84;27.43
41078;BME280;26823;42.662;23.352;2022-08-18T14:08:57;94467.31;;;31.84;27.97
41078;BME280;26823;42.662;23.352;2022-08-18T14:11:26;94483.03;;;31.74;27.57
41078;BME280;26823;42.662;23.352;2022-08-18T14:13:54;94477.44;;;31.74;28.33
41078;BME280;26823;42.662;23.352;2022-08-18T14:16:20;94468.00;;;31.64;28.60
41078;BME280;26823;42.662;23.352;2022-08-18T14:18:46;94479.56;;;31.66;29.28
41078;BME280;26823;42.662;23.352;2022-08-18T14:21:41;94480.03;;;31.61;29.14
41078;BME280;26823;42.662;23.352;2022-08-18T14:24:25;94475.16;;;31.42;29.13
41078;BME280;26823;42.662;23.352;2022-08-18T14:27:09;94476.44;;;31.06;29.85
41078;BME280;26823;42.662;23.352;2022-08-18T14:29:35;94463.94;;;30.83;29.96
41078;BME280;26823;42.662;23.352;2022-08-18T14:32:00;94461.69;;;30.74;30.05
41078;BME280;26823;42.662;23.352;2022-08-18T14:34:26;94465.06;;;30.89;29.56
41078;BME280;26823;42.662;23.352;2022-08-18T14:36:51;94461.41;;;30.96;29.50
41078;BME280;26823;42.662;23.352;2022-08-18T14:39:17;94454.91;;;31.03;29.11
41078;BME280;26823;42.662;23.352;2022-08-18T14:41:42;94465.13;;;31.17;27.98
41078;BME280;26823;42.662;23.352;2022-08-18T14:44:07;94457.34;;;31.01;29.99
41078;BME280;26823;42.662;23.352;2022-08-18T14:46:35;94457.72;;;31.03;30.18
41078;BME280;26823;42.662;23.352;2022-08-18T14:49:00;94460.78;;;30.81;30.07
41078;BME280;26823;42.662;23.352;2022-08-18T14:51:26;94448.38;;;30.86;30.28
41078;BME280;26823;42.662;23.352;2022-08-18T14:53:51;94449.00;;;30.97;30.49
41078;BME280;26823;42.662;23.352;2022-08-18T14:56:17;94458.34;;;30.83;30.59
41078;BME280;26823;42.662;23.352;2022-08-18T14:58:43;94462.22;;;30.62;31.21
41078;BME280;26823;42.662;23.352;2022-08-18T15:01:09;94470.84;;;30.75;30.16
41078;BME280;26823;42.662;23.352;2022-08-18T15:03:36;94463.03;;;30.94;30.87
41078;BME280;26823;42.662;23.352;2022-08-18T15:06:04;94463.94;;;30.83;30.06
41078;BME280;26823;42.662;23.352;2022-08-18T15:08:29;94467.31;;;30.71;30.68
41078;BME280;26823;42.662;23.352;2022-08-18T15:10:55;94458.81;;;30.78;30.09
41078;BME280;26823;42.662;23.352;2022-08-18T15:13:22;94455.44;;;30.94;29.11
41078;BME280;26823;42.662;23.352;2022-08-18T15:15:48;94473.06;;;30.87;30.24
41078;BME280;26823;42.662;23.352;2022-08-18T15:18:14;94444.44;;;30.49;30.45
41078;BME280;26823;42.662;23.352;2022-08-18T15:20:39;94476.19;;;30.62;30.33
41078;BME280;26823;42.662;23.352;2022-08-18T15:23:24;94462.53;;;30.68;30.56
41078;BME280;26823;42.662;23.352;2022-08-18T15:26:08;94471.63;;;30.75;30.35
41078;BME280;26823;42.662;23.352;2022-08-18T15:28:35;94464.13;;;30.69;31.14
41078;BME280;26823;42.662;23.352;2022-08-18T15:31:01;94476.50;;;30.68;31.38
41078;BME280;26823;42.662;23.352;2022-08-18T15:33:27;94471.25;;;30.73;30.65
41078;BME280;26823;42.662;23.352;2022-08-18T15:35:53;94471.34;;;30.66;31.64
41078;BME280;26823;42.662;23.352;2022-08-18T15:38:21;94479.09;;;30.51;31.53
41078;BME280;26823;42.662;23.352;2022-08-18T15:41:06;94478.88;;;30.31;31.89
41078;BME280;26823;42.662;23.352;2022-08-18T15:43:31;94474.66;;;30.16;32.46